sensor_id;sensor_type;location;lat;lon;timestamp;pressure;altitude;pressure_sealevel;temperature;humidity
52957;BME280;38819;42.692;23.342;2022-12-29T00:01:34;96232.75;;;7.04;68.32
52957;BME280;38819;42.692;23.342;2022-12-29T00:04:00;96238.53;;;7.13;68.45
52957;BME280;38819;42.692;23.342;2022-12-29T00:06:25;96234.47;;;7.10;68.45
52957;BME280;38819;42.692;23.342;2022-12-29T00:08:50;96239.25;;;7.08;68.77
52957;BME280;38819;42.692;23.342;2022-12-29T00:11:25;96237.31;;;7.03;68.88
52957;BME280;38819;42.692;23.342;2022-12-29T00:13:51;96240.31;;;7.07;69.06
52957;BME280;38819;42.692;23.342;2022-12-29T00:16:35;96241.94;;;7.08;69.16
52957;BME280;38819;42.692;23.342;2022-12-29T00:19:01;96242.53;;;7.10;69.15
52957;BME280;38819;42.692;23.342;2022-12-29T00:21:27;96239.56;;;6.95;69.31
52957;BME280;38819;42.692;23.342;2022-12-29T00:24:12;96243.91;;;6.96;69.28
52957;BME280;38819;42.692;23.342;2022-12-29T00:26:55;96244.53;;;7.03;68.93
52957;BME280;38819;42.692;23.342;2022-12-29T00:29:40;96246.66;;;7.01;68.94
52957;BME280;38819;42.692;23.342;2022-12-29T00:32:24;96248.47;;;6.95;69.30
52957;BME280;38819;42.692;23.342;2022-12-29T00:35:09;96253.25;;;6.93;69.54
52957;BME280;38819;42.692;23.342;2022-12-29T00:37:38;96254.72;;;7.01;69.24
52957;BME280;38819;42.692;23.342;2022-12-29T00:40:24;96257.66;;;6.99;69.49
52957;BME280;38819;42.692;23.342;2022-12-29T00:43:07;96260.25;;;6.94;69.49
52957;BME280;38819;42.692;23.342;2022-12-29T00:45:51;96252.03;;;7.01;69.35
52957;BME280;38819;42.692;23.342;2022-12-29T00:48:17;96253.09;;;7.00;69.40
52957;BME280;38819;42.692;23.342;2022-12-29T00:51:05;96264.41;;;7.02;69.09
52957;BME280;38819;42.692;23.342;2022-12-29T00:53:30;96266.19;;;6.96;69.17
52957;BME280;38819;42.692;23.342;2022-12-29T00:55:56;96263.81;;;7.00;69.07
52957;BME280;38819;42.692;23.342;2022-12-29T00:58:21;96256.28;;;6.97;69.10
52957;BME280;38819;42.692;23.342;2022-12-29T01:00:46;96259.53;;;6.99;69.10
52957;BME280;38819;42.692;23.342;2022-12-29T01:03:11;96257.88;;;6.98;69.11
52957;BME280;38819;42.692;23.342;2022-12-29T01:05:37;96260.56;;;6.98;69.01
52957;BME280;38819;42.692;23.342;2022-12-29T01:08:02;96256.69;;;7.05;68.76
52957;BME280;38819;42.692;23.342;2022-12-29T01:10:28;96256.38;;;7.02;68.57
52957;BME280;38819;42.692;23.342;2022-12-29T01:12:53;96258.06;;;6.91;69.02
52957;BME280;38819;42.692;23.342;2022-12-29T01:15:18;96253.16;;;6.88;69.14
52957;BME280;38819;42.692;23.342;2022-12-29T01:17:43;96247.63;;;6.95;68.90
52957;BME280;38819;42.692;23.342;2022-12-29T01:20:09;96254.81;;;6.89;69.12
52957;BME280;38819;42.692;23.342;2022-12-29T01:22:35;96254.63;;;6.62;69.71
52957;BME280;38819;42.692;23.342;2022-12-29T01:25:01;96243.69;;;6.52;70.05
52957;BME280;38819;42.692;23.342;2022-12-29T01:27:26;96247.41;;;6.34;70.65
52957;BME280;38819;42.692;23.342;2022-12-29T01:29:51;96247.56;;;6.44;70.79
52957;BME280;38819;42.692;23.342;2022-12-29T01:32:17;96240.91;;;6.46;70.51
52957;BME280;38819;42.692;23.342;2022-12-29T01:34:42;96238.81;;;6.48;70.43
52957;BME280;38819;42.692;23.342;2022-12-29T01:37:07;96235.88;;;6.50;70.64
52957;BME280;38819;42.692;23.342;2022-12-29T01:39:32;96231.66;;;6.54;70.27
52957;BME280;38819;42.692;23.342;2022-12-29T01:41:58;96229.69;;;6.49;70.49
52957;BME280;38819;42.692;23.342;2022-12-29T01:47:07;96226.38;;;6.59;70.19
52957;BME280;38819;42.692;23.342;2022-12-29T01:49:32;96229.13;;;6.64;70.26
52957;BME280;38819;42.692;23.342;2022-12-29T01:51:59;96223.78;;;6.64;70.16
52957;BME280;38819;42.692;23.342;2022-12-29T01:54:28;96220.84;;;6.66;69.90
52957;BME280;38819;42.692;23.342;2022-12-29T01:56:54;96223.28;;;6.67;69.75
52957;BME280;38819;42.692;23.342;2022-12-29T01:59:22;96219.81;;;6.67;69.97
52957;BME280;38819;42.692;23.342;2022-12-29T02:01:49;96216.88;;;6.68;69.51
52957;BME280;38819;42.692;23.342;2022-12-29T02:04:15;96212.06;;;6.71;69.62
52957;BME280;38819;42.692;23.342;2022-12-29T02:06:46;96205.38;;;6.73;69.31
52957;BME280;38819;42.692;23.342;2022-12-29T02:09:13;96209.16;;;6.72;69.31
52957;BME280;38819;42.692;23.342;2022-12-29T02:11:38;96210.75;;;6.73;69.14
52957;BME280;38819;42.692;23.342;2022-12-29T02:14:11;96201.09;;;6.72;69.18
52957;BME280;38819;42.692;23.342;2022-12-29T02:19:14;96209.16;;;6.72;69.38
52957;BME280;38819;42.692;23.342;2022-12-29T02:27:18;96212.63;;;6.73;68.86
52957;BME280;38819;42.692;23.342;2022-12-29T02:29:48;96201.00;;;6.67;69.24
52957;BME280;38819;42.692;23.342;2022-12-29T02:32:35;96199.44;;;6.71;68.98
52957;BME280;38819;42.692;23.342;2022-12-29T02:45:46;96207.75;;;6.70;68.66
52957;BME280;38819;42.692;23.342;2022-12-29T02:53:21;96207.50;;;6.71;68.43
52957;BME280;38819;42.692;23.342;2022-12-29T02:56:08;96201.81;;;6.67;68.59
52957;BME280;38819;42.692;23.342;2022-12-29T02:58:33;96194.72;;;6.61;68.51
52957;BME280;38819;42.692;23.342;2022-12-29T03:10:59;96197.75;;;6.65;68.34
52957;BME280;38819;42.692;23.342;2022-12-29T03:18:46;96194.09;;;6.71;68.41
52957;BME280;38819;42.692;23.342;2022-12-29T03:23:37;96183.66;;;6.75;68.53
52957;BME280;38819;42.692;23.342;2022-12-29T03:26:05;96174.47;;;6.71;68.77
52957;BME280;38819;42.692;23.342;2022-12-29T03:28:38;96183.03;;;6.67;69.20
52957;BME280;38819;42.692;23.342;2022-12-29T03:31:04;96190.75;;;6.64;69.25
52957;BME280;38819;42.692;23.342;2022-12-29T03:33:31;96189.19;;;6.51;69.43
52957;BME280;38819;42.692;23.342;2022-12-29T03:35:58;96189.34;;;6.44;69.29
52957;BME280;38819;42.692;23.342;2022-12-29T03:38:35;96179.84;;;6.37;69.25
52957;BME280;38819;42.692;23.342;2022-12-29T03:41:03;96192.56;;;6.29;69.49
52957;BME280;38819;42.692;23.342;2022-12-29T03:43:29;96180.63;;;6.20;69.69
52957;BME280;38819;42.692;23.342;2022-12-29T03:45:55;96190.97;;;6.28;69.32
52957;BME280;38819;42.692;23.342;2022-12-29T03:48:20;96192.72;;;6.23;69.24
52957;BME280;38819;42.692;23.342;2022-12-29T03:50:45;96200.91;;;6.16;69.74
52957;BME280;38819;42.692;23.342;2022-12-29T03:53:11;96202.47;;;6.12;69.65
52957;BME280;38819;42.692;23.342;2022-12-29T03:55:36;96198.47;;;6.15;69.42
52957;BME280;38819;42.692;23.342;2022-12-29T03:58:01;96205.09;;;6.24;69.25
52957;BME280;38819;42.692;23.342;2022-12-29T04:00:26;96209.66;;;6.23;69.12
52957;BME280;38819;42.692;23.342;2022-12-29T04:02:53;96211.06;;;6.14;69.43
52957;BME280;38819;42.692;23.342;2022-12-29T04:05:18;96219.97;;;6.03;69.79
52957;BME280;38819;42.692;23.342;2022-12-29T04:07:44;96213.91;;;5.96;70.16
52957;BME280;38819;42.692;23.342;2022-12-29T04:10:09;96216.72;;;5.89;70.50
52957;BME280;38819;42.692;23.342;2022-12-29T04:12:34;96204.75;;;5.80;70.85
52957;BME280;38819;42.692;23.342;2022-12-29T04:15:00;96199.03;;;5.76;70.77
52957;BME280;38819;42.692;23.342;2022-12-29T04:17:25;96216.91;;;5.70;71.07
52957;BME280;38819;42.692;23.342;2022-12-29T04:19:50;96211.19;;;5.67;71.17
52957;BME280;38819;42.692;23.342;2022-12-29T04:22:16;96208.53;;;5.67;71.15
52957;BME280;38819;42.692;23.342;2022-12-29T04:24:41;96212.00;;;5.67;71.14
52957;BME280;38819;42.692;23.342;2022-12-29T04:27:06;96210.25;;;5.61;71.30
52957;BME280;38819;42.692;23.342;2022-12-29T04:29:32;96215.50;;;5.68;71.17
52957;BME280;38819;42.692;23.342;2022-12-29T04:31:57;96217.84;;;5.64;71.13
52957;BME280;38819;42.692;23.342;2022-12-29T04:34:22;96218.09;;;5.51;71.46
52957;BME280;38819;42.692;23.342;2022-12-29T04:36:47;96226.25;;;5.44;71.82
52957;BME280;38819;42.692;23.342;2022-12-29T04:39:13;96224.53;;;5.50;71.62
52957;BME280;38819;42.692;23.342;2022-12-29T04:41:38;96218.31;;;5.49;71.73
52957;BME280;38819;42.692;23.342;2022-12-29T04:44:03;96226.25;;;5.44;72.07
52957;BME280;38819;42.692;23.342;2022-12-29T04:46:29;96233.56;;;5.61;71.44
52957;BME280;38819;42.692;23.342;2022-12-29T04:48:54;96232.50;;;5.73;71.06
52957;BME280;38819;42.692;23.342;2022-12-29T04:51:19;96238.69;;;5.74;71.23
52957;BME280;38819;42.692;23.342;2022-12-29T04:53:44;96245.22;;;5.66;71.04
52957;BME280;38819;42.692;23.342;2022-12-29T04:56:10;96246.88;;;5.55;71.40
52957;BME280;38819;42.692;23.342;2022-12-29T04:58:35;96246.88;;;5.55;71.45
52957;BME280;38819;42.692;23.342;2022-12-29T05:01:01;96238.16;;;5.48;71.62
52957;BME280;38819;42.692;23.342;2022-12-29T05:03:26;96246.28;;;5.53;71.57
52957;BME280;38819;42.692;23.342;2022-12-29T05:05:55;96245.00;;;5.44;71.83
52957;BME280;38819;42.692;23.342;2022-12-29T05:08:20;96243.88;;;5.40;72.14
52957;BME280;38819;42.692;23.342;2022-12-29T05:10:46;96243.41;;;5.43;71.99
52957;BME280;38819;42.692;23.342;2022-12-29T05:13:11;96243.16;;;5.45;72.01
52957;BME280;38819;42.692;23.342;2022-12-29T05:15:36;96238.84;;;5.44;71.84
52957;BME280;38819;42.692;23.342;2022-12-29T05:18:02;96240.81;;;5.48;72.07
52957;BME280;38819;42.692;23.342;2022-12-29T05:20:27;96235.13;;;5.56;71.80
52957;BME280;38819;42.692;23.342;2022-12-29T05:22:52;96240.34;;;5.63;71.45
52957;BME280;38819;42.692;23.342;2022-12-29T05:25:18;96246.97;;;5.72;71.02
52957;BME280;38819;42.692;23.342;2022-12-29T05:27:43;96241.00;;;5.82;70.56
52957;BME280;38819;42.692;23.342;2022-12-29T05:30:08;96239.22;;;5.88;70.47
52957;BME280;38819;42.692;23.342;2022-12-29T05:32:34;96240.16;;;5.93;70.15
52957;BME280;38819;42.692;23.342;2022-12-29T05:34:59;96244.84;;;5.98;70.15
52957;BME280;38819;42.692;23.342;2022-12-29T05:37:24;96239.81;;;6.02;70.14
52957;BME280;38819;42.692;23.342;2022-12-29T05:39:50;96249.56;;;6.08;69.72
52957;BME280;38819;42.692;23.342;2022-12-29T05:42:15;96247.03;;;6.01;69.97
52957;BME280;38819;42.692;23.342;2022-12-29T05:44:40;96254.84;;;6.03;69.89
52957;BME280;38819;42.692;23.342;2022-12-29T05:47:06;96251.69;;;6.06;69.76
52957;BME280;38819;42.692;23.342;2022-12-29T05:49:31;96246.19;;;6.12;69.70
52957;BME280;38819;42.692;23.342;2022-12-29T05:51:57;96243.94;;;6.21;69.72
52957;BME280;38819;42.692;23.342;2022-12-29T05:54:22;96255.03;;;6.25;69.62
52957;BME280;38819;42.692;23.342;2022-12-29T05:56:47;96250.22;;;6.27;69.79
52957;BME280;38819;42.692;23.342;2022-12-29T05:59:13;96247.06;;;6.30;69.74
52957;BME280;38819;42.692;23.342;2022-12-29T06:01:38;96251.69;;;6.35;69.48
52957;BME280;38819;42.692;23.342;2022-12-29T06:04:03;96264.06;;;6.36;69.64
52957;BME280;38819;42.692;23.342;2022-12-29T06:06:29;96259.84;;;6.40;69.60
52957;BME280;38819;42.692;23.342;2022-12-29T06:08:54;96270.56;;;6.40;69.69
52957;BME280;38819;42.692;23.342;2022-12-29T06:11:19;96263.97;;;6.30;70.00
52957;BME280;38819;42.692;23.342;2022-12-29T06:13:44;96268.06;;;6.21;70.52
52957;BME280;38819;42.692;23.342;2022-12-29T06:16:10;96270.41;;;6.18;70.48
52957;BME280;38819;42.692;23.342;2022-12-29T06:18:35;96263.94;;;6.02;70.05
52957;BME280;38819;42.692;23.342;2022-12-29T06:21:01;96266.97;;;6.05;69.82
52957;BME280;38819;42.692;23.342;2022-12-29T06:23:26;96262.75;;;6.09;69.42
52957;BME280;38819;42.692;23.342;2022-12-29T06:25:52;96276.91;;;6.05;69.64
52957;BME280;38819;42.692;23.342;2022-12-29T06:28:17;96267.53;;;6.07;69.73
52957;BME280;38819;42.692;23.342;2022-12-29T06:30:43;96268.34;;;6.08;69.75
52957;BME280;38819;42.692;23.342;2022-12-29T06:33:09;96268.72;;;6.11;69.74
52957;BME280;38819;42.692;23.342;2022-12-29T06:35:35;96265.63;;;6.20;69.38
52957;BME280;38819;42.692;23.342;2022-12-29T06:38:00;96272.16;;;6.24;69.59
52957;BME280;38819;42.692;23.342;2022-12-29T06:40:25;96275.88;;;6.23;69.38
52957;BME280;38819;42.692;23.342;2022-12-29T06:42:50;96271.69;;;6.27;69.37
52957;BME280;38819;42.692;23.342;2022-12-29T06:45:16;96269.72;;;6.22;69.40
52957;BME280;38819;42.692;23.342;2022-12-29T06:47:41;96275.56;;;6.19;69.55
52957;BME280;38819;42.692;23.342;2022-12-29T06:50:06;96279.16;;;6.25;69.53
52957;BME280;38819;42.692;23.342;2022-12-29T06:52:32;96275.56;;;6.19;69.18
52957;BME280;38819;42.692;23.342;2022-12-29T06:54:57;96279.41;;;6.23;69.31
52957;BME280;38819;42.692;23.342;2022-12-29T06:57:23;96283.59;;;6.19;69.53
52957;BME280;38819;42.692;23.342;2022-12-29T06:59:49;96277.75;;;6.22;69.68
52957;BME280;38819;42.692;23.342;2022-12-29T07:02:14;96287.09;;;6.20;69.81
52957;BME280;38819;42.692;23.342;2022-12-29T07:04:41;96285.91;;;6.27;69.63
52957;BME280;38819;42.692;23.342;2022-12-29T07:07:06;96283.31;;;6.33;69.39
52957;BME280;38819;42.692;23.342;2022-12-29T07:09:32;96284.06;;;6.16;69.80
52957;BME280;38819;42.692;23.342;2022-12-29T07:11:57;96289.28;;;6.23;69.64
52957;BME280;38819;42.692;23.342;2022-12-29T07:14:22;96293.25;;;6.32;69.72
52957;BME280;38819;42.692;23.342;2022-12-29T07:16:48;96280.88;;;6.31;69.63
52957;BME280;38819;42.692;23.342;2022-12-29T07:19:13;96282.03;;;6.35;69.68
52957;BME280;38819;42.692;23.342;2022-12-29T07:21:38;96287.03;;;6.43;69.41
52957;BME280;38819;42.692;23.342;2022-12-29T07:24:03;96277.56;;;6.41;69.60
52957;BME280;38819;42.692;23.342;2022-12-29T07:26:29;96281.44;;;6.45;69.44
52957;BME280;38819;42.692;23.342;2022-12-29T07:28:54;96279.16;;;6.54;69.06
52957;BME280;38819;42.692;23.342;2022-12-29T07:31:21;96272.72;;;6.55;69.31
52957;BME280;38819;42.692;23.342;2022-12-29T07:33:46;96273.41;;;6.62;69.04
52957;BME280;38819;42.692;23.342;2022-12-29T07:36:12;96279.19;;;6.71;68.87
52957;BME280;38819;42.692;23.342;2022-12-29T07:38:38;96281.00;;;6.82;68.39
52957;BME280;38819;42.692;23.342;2022-12-29T07:41:04;96279.28;;;6.76;68.55
52957;BME280;38819;42.692;23.342;2022-12-29T07:43:29;96282.84;;;6.81;68.24
52957;BME280;38819;42.692;23.342;2022-12-29T07:45:55;96283.78;;;6.87;68.36
52957;BME280;38819;42.692;23.342;2022-12-29T07:48:20;96284.03;;;6.85;68.51
52957;BME280;38819;42.692;23.342;2022-12-29T07:50:45;96288.00;;;7.00;68.25
52957;BME280;38819;42.692;23.342;2022-12-29T07:53:11;96282.41;;;7.18;67.63
52957;BME280;38819;42.692;23.342;2022-12-29T07:55:36;96286.72;;;7.19;67.41
52957;BME280;38819;42.692;23.342;2022-12-29T07:58:01;96287.94;;;7.29;67.24
52957;BME280;38819;42.692;23.342;2022-12-29T08:00:26;96283.22;;;7.36;66.92
52957;BME280;38819;42.692;23.342;2022-12-29T08:02:52;96284.84;;;7.37;67.02
52957;BME280;38819;42.692;23.342;2022-12-29T08:05:17;96288.50;;;7.48;66.75
52957;BME280;38819;42.692;23.342;2022-12-29T08:07:43;96290.31;;;7.42;66.50
52957;BME280;38819;42.692;23.342;2022-12-29T08:10:09;96295.69;;;7.42;66.62
52957;BME280;38819;42.692;23.342;2022-12-29T08:12:34;96287.34;;;7.27;67.16
52957;BME280;38819;42.692;23.342;2022-12-29T08:14:59;96285.09;;;7.35;67.03
52957;BME280;38819;42.692;23.342;2022-12-29T08:17:24;96289.53;;;7.47;66.91
52957;BME280;38819;42.692;23.342;2022-12-29T08:19:50;96291.88;;;7.60;66.63
52957;BME280;38819;42.692;23.342;2022-12-29T08:22:15;96289.13;;;7.55;66.29
52957;BME280;38819;42.692;23.342;2022-12-29T08:24:40;96286.28;;;7.61;66.61
52957;BME280;38819;42.692;23.342;2022-12-29T08:27:06;96290.97;;;7.71;66.18
52957;BME280;38819;42.692;23.342;2022-12-29T08:29:31;96284.00;;;7.70;65.96
52957;BME280;38819;42.692;23.342;2022-12-29T08:31:56;96284.41;;;7.62;66.23
52957;BME280;38819;42.692;23.342;2022-12-29T08:34:21;96284.50;;;7.50;66.65
52957;BME280;38819;42.692;23.342;2022-12-29T08:36:47;96283.81;;;7.60;66.49
52957;BME280;38819;42.692;23.342;2022-12-29T08:39:12;96287.59;;;7.59;66.67
52957;BME280;38819;42.692;23.342;2022-12-29T08:41:38;96284.97;;;7.64;66.60
52957;BME280;38819;42.692;23.342;2022-12-29T08:44:03;96288.53;;;7.70;66.25
52957;BME280;38819;42.692;23.342;2022-12-29T08:46:28;96286.75;;;7.75;66.15
52957;BME280;38819;42.692;23.342;2022-12-29T08:48:54;96281.63;;;7.74;66.24
52957;BME280;38819;42.692;23.342;2022-12-29T08:51:19;96288.50;;;7.87;65.98
52957;BME280;38819;42.692;23.342;2022-12-29T08:53:44;96282.13;;;7.93;65.80
52957;BME280;38819;42.692;23.342;2022-12-29T08:56:10;96288.41;;;7.98;65.85
52957;BME280;38819;42.692;23.342;2022-12-29T08:58:36;96279.56;;;8.03;65.72
52957;BME280;38819;42.692;23.342;2022-12-29T09:01:01;96282.00;;;8.05;65.89
52957;BME280;38819;42.692;23.342;2022-12-29T09:03:27;96281.00;;;8.11;65.53
52957;BME280;38819;42.692;23.342;2022-12-29T09:05:53;96268.13;;;8.13;65.63
52957;BME280;38819;42.692;23.342;2022-12-29T09:08:18;96268.28;;;8.28;65.14
52957;BME280;38819;42.692;23.342;2022-12-29T09:10:44;96268.47;;;8.22;65.41
52957;BME280;38819;42.692;23.342;2022-12-29T09:13:10;96266.41;;;8.07;65.97
52957;BME280;38819;42.692;23.342;2022-12-29T09:15:36;96264.75;;;8.01;66.14
52957;BME280;38819;42.692;23.342;2022-12-29T09:18:01;96261.75;;;7.97;66.28
52957;BME280;38819;42.692;23.342;2022-12-29T09:20:26;96261.16;;;7.95;66.78
52957;BME280;38819;42.692;23.342;2022-12-29T09:22:51;96259.38;;;8.01;66.64
52957;BME280;38819;42.692;23.342;2022-12-29T09:25:17;96252.34;;;8.00;66.96
52957;BME280;38819;42.692;23.342;2022-12-29T09:27:42;96257.28;;;8.08;66.92
52957;BME280;38819;42.692;23.342;2022-12-29T09:30:09;96257.16;;;8.20;66.16
52957;BME280;38819;42.692;23.342;2022-12-29T09:32:35;96247.91;;;8.32;65.46
52957;BME280;38819;42.692;23.342;2022-12-29T09:35:01;96253.59;;;8.36;65.60
52957;BME280;38819;42.692;23.342;2022-12-29T09:37:26;96253.53;;;8.31;66.01
52957;BME280;38819;42.692;23.342;2022-12-29T09:39:51;96246.81;;;8.33;66.10
52957;BME280;38819;42.692;23.342;2022-12-29T09:42:35;96246.41;;;8.20;66.18
52957;BME280;38819;42.692;23.342;2022-12-29T09:47:31;96233.88;;;8.52;65.00
52957;BME280;38819;42.692;23.342;2022-12-29T09:50:05;96234.38;;;8.49;65.00
52957;BME280;38819;42.692;23.342;2022-12-29T09:52:40;96223.91;;;8.53;65.11
52957;BME280;38819;42.692;23.342;2022-12-29T09:55:13;96216.75;;;8.64;65.05
52957;BME280;38819;42.692;23.342;2022-12-29T09:57:49;96222.22;;;8.74;64.44
52957;BME280;38819;42.692;23.342;2022-12-29T10:00:18;96216.38;;;8.82;64.33
52957;BME280;38819;42.692;23.342;2022-12-29T10:02:46;96213.19;;;8.90;64.21
52957;BME280;38819;42.692;23.342;2022-12-29T10:06:04;96208.16;;;8.99;63.83
52957;BME280;38819;42.692;23.342;2022-12-29T10:08:10;96204.97;;;9.07;63.44
52957;BME280;38819;42.692;23.342;2022-12-29T10:13:30;96205.50;;;9.04;64.11
52957;BME280;38819;42.692;23.342;2022-12-29T10:16:01;96205.50;;;9.04;64.11
52957;BME280;38819;42.692;23.342;2022-12-29T10:23:40;96196.81;;;8.97;64.72
52957;BME280;38819;42.692;23.342;2022-12-29T10:26:15;96195.22;;;9.01;64.79
52957;BME280;38819;42.692;23.342;2022-12-29T10:28:46;96183.25;;;8.87;65.45
52957;BME280;38819;42.692;23.342;2022-12-29T10:31:16;96189.47;;;8.87;65.57
52957;BME280;38819;42.692;23.342;2022-12-29T10:33:45;96186.22;;;8.85;65.50
52957;BME280;38819;42.692;23.342;2022-12-29T10:36:18;96186.47;;;8.84;66.12
52957;BME280;38819;42.692;23.342;2022-12-29T10:38:45;96182.44;;;8.86;65.97
52957;BME280;38819;42.692;23.342;2022-12-29T10:41:21;96176.34;;;9.01;65.26
52957;BME280;38819;42.692;23.342;2022-12-29T10:43:47;96182.41;;;9.19;65.00
52957;BME280;38819;42.692;23.342;2022-12-29T10:46:14;96172.50;;;9.30;64.74
52957;BME280;38819;42.692;23.342;2022-12-29T10:48:41;96178.44;;;9.32;64.55
52957;BME280;38819;42.692;23.342;2022-12-29T10:51:10;96161.69;;;9.24;64.63
52957;BME280;38819;42.692;23.342;2022-12-29T10:53:51;96163.56;;;9.19;64.99
52957;BME280;38819;42.692;23.342;2022-12-29T10:58:49;96161.16;;;9.27;64.92
52957;BME280;38819;42.692;23.342;2022-12-29T11:01:15;96154.91;;;9.22;65.31
52957;BME280;38819;42.692;23.342;2022-12-29T11:06:26;96147.59;;;9.12;65.38
52957;BME280;38819;42.692;23.342;2022-12-29T11:08:59;96143.16;;;8.90;65.78
52957;BME280;38819;42.692;23.342;2022-12-29T11:11:27;96142.31;;;8.90;66.03
52957;BME280;38819;42.692;23.342;2022-12-29T11:13:57;96128.00;;;8.84;66.35
52957;BME280;38819;42.692;23.342;2022-12-29T11:16:32;96129.69;;;8.90;65.92
52957;BME280;38819;42.692;23.342;2022-12-29T11:18:59;96134.63;;;9.04;65.69
52957;BME280;38819;42.692;23.342;2022-12-29T11:21:26;96138.31;;;8.93;66.01
52957;BME280;38819;42.692;23.342;2022-12-29T11:24:34;96138.28;;;8.87;66.30
52957;BME280;38819;42.692;23.342;2022-12-29T11:26:40;96132.97;;;9.03;66.02
52957;BME280;38819;42.692;23.342;2022-12-29T11:31:44;96134.13;;;9.12;65.43
52957;BME280;38819;42.692;23.342;2022-12-29T11:34:16;96127.41;;;9.20;65.24
52957;BME280;38819;42.692;23.342;2022-12-29T11:36:42;96128.34;;;9.41;64.98
52957;BME280;38819;42.692;23.342;2022-12-29T11:39:07;96124.88;;;9.45;64.53
52957;BME280;38819;42.692;23.342;2022-12-29T11:41:50;96121.09;;;9.52;64.22
52957;BME280;38819;42.692;23.342;2022-12-29T11:44:16;96119.25;;;9.52;64.31
52957;BME280;38819;42.692;23.342;2022-12-29T11:46:42;96114.31;;;9.39;64.44
52957;BME280;38819;42.692;23.342;2022-12-29T11:49:12;96113.53;;;9.49;64.69
52957;BME280;38819;42.692;23.342;2022-12-29T11:51:43;96111.69;;;9.54;64.63
52957;BME280;38819;42.692;23.342;2022-12-29T11:54:13;96120.78;;;9.38;65.29
52957;BME280;38819;42.692;23.342;2022-12-29T11:56:42;96117.53;;;9.36;65.67
52957;BME280;38819;42.692;23.342;2022-12-29T12:01:52;96117.25;;;9.32;66.13
52957;BME280;38819;42.692;23.342;2022-12-29T12:04:17;96105.66;;;9.32;66.41
52957;BME280;38819;42.692;23.342;2022-12-29T12:06:45;96111.09;;;9.47;65.95
52957;BME280;38819;42.692;23.342;2022-12-29T12:09:18;96114.38;;;9.54;65.47
52957;BME280;38819;42.692;23.342;2022-12-29T12:11:44;96108.13;;;9.43;65.78
52957;BME280;38819;42.692;23.342;2022-12-29T12:14:32;96110.00;;;9.43;66.08
52957;BME280;38819;42.692;23.342;2022-12-29T12:16:59;96111.41;;;9.51;65.57
52957;BME280;38819;42.692;23.342;2022-12-29T12:22:31;96097.13;;;9.60;65.39
52957;BME280;38819;42.692;23.342;2022-12-29T12:25:40;96094.97;;;9.57;65.63
52957;BME280;38819;42.692;23.342;2022-12-29T12:30:33;96090.97;;;9.75;65.10
52957;BME280;38819;42.692;23.342;2022-12-29T12:33:03;96079.66;;;9.73;64.68
52957;BME280;38819;42.692;23.342;2022-12-29T12:38:13;96086.09;;;9.67;64.86
52957;BME280;38819;42.692;23.342;2022-12-29T12:40:43;96083.13;;;9.63;65.16
52957;BME280;38819;42.692;23.342;2022-12-29T12:47:03;96077.75;;;9.74;64.61
52957;BME280;38819;42.692;23.342;2022-12-29T12:54:31;96072.69;;;9.88;63.87
52957;BME280;38819;42.692;23.342;2022-12-29T12:57:10;96078.59;;;9.85;63.79
52957;BME280;38819;42.692;23.342;2022-12-29T13:07:20;96079.63;;;9.68;65.46
52957;BME280;38819;42.692;23.342;2022-12-29T13:12:39;96084.97;;;9.53;66.04
52957;BME280;38819;42.692;23.342;2022-12-29T13:17:37;96081.16;;;9.49;66.36
52957;BME280;38819;42.692;23.342;2022-12-29T13:20:20;96088.19;;;9.44;66.56
52957;BME280;38819;42.692;23.342;2022-12-29T13:28:41;96089.81;;;9.45;66.55
52957;BME280;38819;42.692;23.342;2022-12-29T13:34:03;96088.50;;;9.58;66.16
52957;BME280;38819;42.692;23.342;2022-12-29T13:38:40;96089.56;;;9.52;66.64
52957;BME280;38819;42.692;23.342;2022-12-29T13:41:08;96087.69;;;9.53;66.39
52957;BME280;38819;42.692;23.342;2022-12-29T13:43:36;96091.19;;;9.53;66.64
52957;BME280;38819;42.692;23.342;2022-12-29T13:46:09;96091.50;;;9.67;66.34
52957;BME280;38819;42.692;23.342;2022-12-29T13:51:31;96088.03;;;9.82;65.92
52957;BME280;38819;42.692;23.342;2022-12-29T13:56:34;96082.38;;;9.83;65.76
52957;BME280;38819;42.692;23.342;2022-12-29T13:59:11;96084.81;;;9.90;65.66
52957;BME280;38819;42.692;23.342;2022-12-29T14:01:43;96083.72;;;9.81;65.86
52957;BME280;38819;42.692;23.342;2022-12-29T14:04:13;96094.78;;;9.79;66.15
52957;BME280;38819;42.692;23.342;2022-12-29T14:06:38;96108.22;;;9.59;66.54
52957;BME280;38819;42.692;23.342;2022-12-29T14:09:06;96088.75;;;9.52;66.59
52957;BME280;38819;42.692;23.342;2022-12-29T14:11:51;96092.78;;;9.44;66.99
52957;BME280;38819;42.692;23.342;2022-12-29T14:14:23;96099.00;;;9.50;66.88
52957;BME280;38819;42.692;23.342;2022-12-29T14:16:50;96103.84;;;9.48;66.98
52957;BME280;38819;42.692;23.342;2022-12-29T14:19:17;96101.69;;;9.55;66.79
52957;BME280;38819;42.692;23.342;2022-12-29T14:22:00;96110.56;;;9.50;66.92
52957;BME280;38819;42.692;23.342;2022-12-29T14:26:52;96109.22;;;9.48;66.94
52957;BME280;38819;42.692;23.342;2022-12-29T14:31:49;96116.56;;;9.57;66.65
52957;BME280;38819;42.692;23.342;2022-12-29T14:42:25;96113.38;;;9.76;66.20
52957;BME280;38819;42.692;23.342;2022-12-29T14:44:50;96115.03;;;9.87;65.87
52957;BME280;38819;42.692;23.342;2022-12-29T14:47:20;96105.06;;;9.93;65.79
52957;BME280;38819;42.692;23.342;2022-12-29T14:49:49;96119.91;;;10.00;65.33
52957;BME280;38819;42.692;23.342;2022-12-29T14:52:18;96118.31;;;10.05;65.30
52957;BME280;38819;42.692;23.342;2022-12-29T14:54:47;96118.31;;;10.10;65.06
52957;BME280;38819;42.692;23.342;2022-12-29T14:57:36;96111.03;;;10.10;65.06
52957;BME280;38819;42.692;23.342;2022-12-29T15:00:07;96119.13;;;10.15;64.95
52957;BME280;38819;42.692;23.342;2022-12-29T15:02:35;96109.44;;;10.19;64.86
52957;BME280;38819;42.692;23.342;2022-12-29T15:05:03;96119.69;;;10.23;64.95
52957;BME280;38819;42.692;23.342;2022-12-29T15:07:30;96115.63;;;10.20;65.10
52957;BME280;38819;42.692;23.342;2022-12-29T15:10:06;96108.63;;;10.19;65.01